createdAt,value
2023-04-08T00:00:38.692Z,98848.53
2023-04-08T00:06:02.585Z,98853.31
2023-04-08T00:11:24.301Z,98860.66
2023-04-08T00:16:46.048Z,98859.00
2023-04-08T00:22:08.237Z,98856.44
2023-04-08T00:27:29.908Z,98850.63
2023-04-08T00:32:51.699Z,98861.38
2023-04-08T00:38:13.458Z,98862.38
2023-04-08T00:43:35.176Z,98865.22
2023-04-08T00:48:57.045Z,98871.66
2023-04-08T00:54:18.781Z,98875.09
2023-04-08T00:59:41.568Z,98875.03
2023-04-08T01:05:23.543Z,98876.44
2023-04-08T01:10:51.012Z,98870.44
2023-04-08T01:16:15.754Z,98871.81
2023-04-08T01:21:38.801Z,98868.34
2023-04-08T01:27:01.866Z,98870.63
2023-04-08T01:32:24.978Z,98871.72
2023-04-08T01:37:50.114Z,98877.72
2023-04-08T01:43:16.302Z,98874.38
2023-04-08T01:48:40.236Z,98868.09
2023-04-08T01:54:01.983Z,98870.56
2023-04-08T01:59:28.772Z,98872.06
2023-04-08T02:04:50.640Z,98871.72
2023-04-08T02:10:12.373Z,98876.81
2023-04-08T02:15:36.399Z,98872.22
2023-04-08T02:21:22.153Z,98870.16
2023-04-08T02:26:45.599Z,98870.63
2023-04-08T02:32:10.831Z,98879.44
2023-04-08T02:37:33.249Z,98880.97
2023-04-08T02:42:55.767Z,98878.22
2023-04-08T02:48:17.480Z,98872.66
2023-04-08T02:53:39.191Z,98866.09
2023-04-08T02:59:00.936Z,98869.75
2023-04-08T03:04:22.642Z,98877.84
2023-04-08T03:09:44.383Z,98869.66
2023-04-08T03:15:06.596Z,98871.81
2023-04-08T03:20:28.326Z,98876.66
2023-04-08T03:25:50.024Z,98875.75
2023-04-08T03:31:11.767Z,98868.72
2023-04-08T03:36:33.475Z,98868.72
2023-04-08T03:41:55.294Z,98875.75
2023-04-08T03:47:16.994Z,98876.25
2023-04-08T03:52:38.695Z,98878.81
2023-04-08T03:58:00.382Z,98876.09
2023-04-08T04:03:22.213Z,98878.03
2023-04-08T04:08:44.008Z,98882.63
2023-04-08T04:14:05.732Z,98875.19
2023-04-08T04:19:31.280Z,98879.59
2023-04-08T04:24:52.998Z,98877.44
2023-04-08T04:30:15.762Z,98877.94
2023-04-08T04:35:39.634Z,98882.59
2023-04-08T04:41:01.620Z,98883.75
2023-04-08T04:46:23.441Z,98888.53
2023-04-08T04:51:45.223Z,98890.38
2023-04-08T04:57:07.328Z,98902.63
2023-04-08T05:02:29.148Z,98905.53
2023-04-08T05:07:51.154Z,98914.56
2023-04-08T05:13:13.031Z,98920.06
2023-04-08T05:18:34.770Z,98917.06
2023-04-08T05:23:56.501Z,98932.44
2023-04-08T05:29:18.692Z,98931.53
2023-04-08T05:34:40.572Z,98933.47
2023-04-08T05:40:02.352Z,98941.41
2023-04-08T05:45:24.047Z,98944.13
2023-04-08T05:50:48.233Z,98945.47
2023-04-08T05:56:10.125Z,98951.16
2023-04-08T06:01:32.014Z,98946.41
2023-04-08T06:06:53.820Z,98961.34
2023-04-08T06:12:15.592Z,98958.88
2023-04-08T06:17:38.207Z,98963.72
2023-04-08T06:23:00.049Z,98977.47
2023-04-08T06:28:21.779Z,98978.81
2023-04-08T06:33:43.566Z,98976.44
2023-04-08T06:39:05.532Z,98977.56
2023-04-08T06:44:27.221Z,98974.00
2023-04-08T06:49:48.917Z,98984.19
2023-04-08T06:55:10.728Z,98989.94
2023-04-08T07:00:32.606Z,98995.66
2023-04-08T07:05:54.374Z,98997.63
2023-04-08T07:11:16.230Z,99009.28
2023-04-08T07:16:38.092Z,99007.44
2023-04-08T07:21:59.829Z,99015.28
2023-04-08T07:27:21.536Z,99012.25
2023-04-08T07:32:43.281Z,99009.28
2023-04-08T07:38:09.315Z,99012.53
2023-04-08T07:43:31.896Z,99020.09
2023-04-08T07:48:53.621Z,99023.53
2023-04-08T07:54:17.356Z,99026.34
2023-04-08T07:59:39.185Z,99027.34
2023-04-08T08:05:01.545Z,99020.44
2023-04-08T08:10:23.339Z,99031.09
2023-04-08T08:15:45.381Z,99033.19
2023-04-08T08:21:07.948Z,99038.53
2023-04-08T08:26:29.784Z,99034.94
2023-04-08T08:31:51.518Z,99046.38
2023-04-08T08:37:13.276Z,99044.53
2023-04-08T08:42:35.040Z,99049.59
2023-04-08T08:47:57.686Z,99059.09
2023-04-08T08:53:23.229Z,99047.25
2023-04-08T08:58:45.017Z,99056.78
2023-04-08T09:04:16.746Z,99060.53
2023-04-08T09:09:49.282Z,99063.63
2023-04-08T09:15:11.068Z,99060.00
2023-04-08T09:20:32.953Z,99073.44
2023-04-08T09:26:06.915Z,99068.31
2023-04-08T09:31:31.794Z,99067.56
2023-04-08T09:36:54.701Z,99072.44
2023-04-08T09:42:19.959Z,99066.44
2023-04-08T09:47:55.690Z,99067.47
2023-04-08T09:53:21.546Z,99068.59
2023-04-08T09:59:02.621Z,99067.56
2023-04-08T10:04:26.594Z,99074.78
2023-04-08T10:09:49.379Z,99062.16
2023-04-08T10:15:36.046Z,99068.69
2023-04-08T10:20:57.753Z,99066.72
2023-04-08T10:26:33.560Z,99064.94
2023-04-08T10:31:57.372Z,99058.84
2023-04-08T10:37:19.252Z,99062.13
2023-04-08T10:42:40.917Z,99057.13
2023-04-08T10:48:25.131Z,99072.91
2023-04-08T10:53:46.928Z,99070.03
2023-04-08T10:59:08.613Z,99071.63
2023-04-08T11:04:30.435Z,99068.78
2023-04-08T11:09:52.232Z,99064.63
2023-04-08T11:15:14.496Z,99071.63
2023-04-08T11:20:37.039Z,99068.13
2023-04-08T11:25:58.794Z,99062.91
2023-04-08T11:31:24.545Z,99057.84
2023-04-08T11:36:47.111Z,99060.22
2023-04-08T11:42:08.849Z,99066.63
2023-04-08T11:47:34.253Z,99060.41
2023-04-08T11:52:56.983Z,99059.63
2023-04-08T11:58:18.706Z,99061.53
2023-04-08T12:03:54.582Z,99063.00
2023-04-08T12:09:16.990Z,99059.25
2023-04-08T12:14:38.707Z,99064.03
2023-04-08T12:20:00.960Z,99064.50
2023-04-08T12:25:22.694Z,99065.31
2023-04-08T12:30:44.392Z,99073.19
2023-04-08T12:36:06.159Z,99067.06
2023-04-08T12:41:27.884Z,99068.47
2023-04-08T12:46:49.581Z,99071.75
2023-04-08T12:52:11.293Z,99064.44
2023-04-08T12:57:32.964Z,99066.69
2023-04-08T13:02:54.825Z,99060.75
2023-04-08T13:08:17.499Z,99060.28
2023-04-08T13:13:40.054Z,99065.28
2023-04-08T13:19:01.748Z,99062.59
2023-04-08T13:24:23.661Z,99064.44
2023-04-08T13:29:45.329Z,99063.31
2023-04-08T13:35:07.432Z,99072.22
2023-04-08T13:40:29.158Z,99063.13
2023-04-08T13:45:50.903Z,99064.06
2023-04-08T13:51:12.704Z,99053.31
2023-04-08T13:56:34.441Z,99056.94
2023-04-08T14:01:56.212Z,99056.56
2023-04-08T14:07:19.000Z,99061.28
2023-04-08T14:12:40.841Z,99059.25
2023-04-08T14:18:02.578Z,99054.63
2023-04-08T14:23:24.324Z,99064.94
2023-04-08T14:28:47.506Z,99055.06
2023-04-08T14:34:09.227Z,99066.78
2023-04-08T14:39:30.892Z,99059.59
2023-04-08T14:44:52.561Z,99060.63
2023-04-08T14:50:14.240Z,99069.06
2023-04-08T14:55:35.994Z,99067.91
2023-04-08T15:00:57.685Z,99070.19
2023-04-08T15:06:21.647Z,99074.94
2023-04-08T15:11:43.327Z,99078.03
2023-04-08T15:17:05.079Z,99082.31
2023-04-08T15:22:27.028Z,99082.41
2023-04-08T15:27:48.768Z,99082.63
2023-04-08T15:33:10.573Z,99087.97
2023-04-08T15:38:33.642Z,99091.38
2023-04-08T15:43:55.608Z,99094.88
2023-04-08T15:49:17.306Z,99090.22
2023-04-08T15:54:39.005Z,99097.16
2023-04-08T16:00:01.023Z,99099.47
2023-04-08T16:05:22.866Z,99097.91
2023-04-08T16:10:44.557Z,99108.56
2023-04-08T16:16:06.390Z,99107.91
2023-04-08T16:21:28.808Z,99113.78
2023-04-08T16:26:50.505Z,99115.94
2023-04-08T16:32:12.256Z,99122.84
2023-04-08T16:37:34.637Z,99129.63
2023-04-08T16:42:56.479Z,99133.47
2023-04-08T16:48:18.632Z,99135.13
2023-04-08T16:53:40.985Z,99144.56
2023-04-08T16:59:03.216Z,99152.59
2023-04-08T17:04:24.945Z,99149.78
2023-04-08T17:09:51.355Z,99150.66
2023-04-08T17:15:13.094Z,99154.41
2023-04-08T17:20:34.833Z,99162.88
2023-04-08T17:25:56.961Z,99163.97
2023-04-08T17:31:18.717Z,99166.47
2023-04-08T17:36:40.626Z,99167.63
2023-04-08T17:42:02.491Z,99183.16
2023-04-08T17:47:24.216Z,99184.88
2023-04-08T17:52:48.886Z,99191.00
2023-04-08T17:58:10.620Z,99191.13
2023-04-08T18:03:32.466Z,99198.41
2023-04-08T18:08:54.563Z,99193.88
2023-04-08T18:14:16.597Z,99200.81
2023-04-08T18:19:38.314Z,99204.94
2023-04-08T18:25:00.135Z,99213.16
2023-04-08T18:30:21.941Z,99228.50
2023-04-08T18:35:43.710Z,99236.34
2023-04-08T18:41:05.748Z,99234.66
2023-04-08T18:46:27.594Z,99243.47
2023-04-08T18:51:59.430Z,99251.38
2023-04-08T18:57:23.463Z,99251.66
2023-04-08T19:02:45.255Z,99267.91
2023-04-08T19:08:07.026Z,99264.66
2023-04-08T19:13:29.060Z,99280.91
2023-04-08T19:18:50.997Z,99282.72
2023-04-08T19:24:12.799Z,99281.56
2023-04-08T19:29:34.699Z,99285.22
2023-04-08T19:34:56.462Z,99287.97
2023-04-08T19:40:19.410Z,99287.47
2023-04-08T19:45:41.364Z,99292.75
2023-04-08T19:51:03.654Z,99306.13
2023-04-08T19:56:25.758Z,99304.00
2023-04-08T20:01:47.597Z,99297.50
2023-04-08T20:07:09.695Z,99292.00
2023-04-08T20:12:31.358Z,99300.31
2023-04-08T20:17:53.800Z,99303.00
2023-04-08T20:23:17.333Z,99301.38
2023-04-08T20:28:40.104Z,99304.88
2023-04-08T20:34:03.296Z,99313.16
2023-04-08T20:39:29.699Z,99307.31
2023-04-08T20:44:51.878Z,99305.75
2023-04-08T20:50:13.794Z,99306.91
2023-04-08T20:55:35.621Z,99303.66
2023-04-08T21:00:57.757Z,99306.72
2023-04-08T21:06:20.467Z,99301.56
2023-04-08T21:11:42.259Z,99307.03
2023-04-08T21:17:04.061Z,99306.06
2023-04-08T21:22:25.825Z,99303.78
2023-04-08T21:27:47.608Z,99300.31
2023-04-08T21:33:09.413Z,99303.50
2023-04-08T21:38:31.195Z,99304.81
2023-04-08T21:43:53.497Z,99301.22
2023-04-08T21:49:15.548Z,99296.69
2023-04-08T21:54:37.289Z,99296.44
2023-04-08T21:59:59.075Z,99299.91
2023-04-08T22:05:20.930Z,99296.38
2023-04-08T22:10:42.825Z,99304.28
2023-04-08T22:16:04.667Z,99297.81
2023-04-08T22:21:26.475Z,99300.91
2023-04-08T22:26:48.181Z,99289.88
2023-04-08T22:32:09.907Z,99289.09
2023-04-08T22:37:32.318Z,99289.66
2023-04-08T22:42:54.031Z,99287.88
2023-04-08T22:48:15.824Z,99296.50
2023-04-08T22:53:37.715Z,99289.59
2023-04-08T22:58:59.466Z,99288.81
2023-04-08T23:04:21.147Z,99282.91
2023-04-08T23:09:42.848Z,99284.47
2023-04-08T23:15:04.978Z,99288.91
2023-04-08T23:20:26.659Z,99289.69
2023-04-08T23:25:48.315Z,99284.38
2023-04-08T23:31:10.218Z,99288.91
2023-04-08T23:36:31.943Z,99283.06
2023-04-08T23:41:53.620Z,99294.19
2023-04-08T23:47:15.677Z,99286.41
2023-04-08T23:52:37.368Z,99283.34
2023-04-08T23:57:59.150Z,99284.84
